Aérodrome :
LOGIN :

S'inscrire | Disclaimer

   EN    FR    IT 

 










Légende :    VFR   VFR Marginal   IFR   IFR Intensif   IFR Très Intensif
Visi : 
Plafond : 
>= 8 km
>= 3000ft
5 à 8 km
1000 à 3000 ft
1500m à 5 km
500 à 1000 ft
800 à 1500m
200 à 500 ft
< 800m
< 200 ft
Symboles :   Orages  Brouillard  Fortes neiges  Fortes précipitations  Vent > 20 kt
SIGMETs :   Divers  Orages  Givrage  Turbulence  Onde Orograph.  Cendres Volcan.






- Altitude de l'aérodrome : 755 ft
- Code IATA : KSC


LZKZ - Kosice

DERNIER METAR :
  • 071000Z VRB02KT CAVOK 27/16 Q1008 NOSIG

METARs EXPIRÉS :
  • 070930Z VRB03KT CAVOK 26/16 Q1009 NOSIG
  • 070900Z 11004KT 060V150 CAVOK 26/15 Q1009 NOSIG
  • 070830Z VRB02KT CAVOK 25/16 Q1009 NOSIG
  • 070800Z VRB02KT CAVOK 24/16 Q1009 NOSIG
  • 070730Z VRB02KT CAVOK 24/16 Q1009 NOSIG

TAF TAF LZKZ
Valide du 07 à 06h jusqu'au 08 à 06h UTC


070500Z 0706/0806 VRB02KT 9999 FEW045 SCT090
BECMG 0707/0709 16008KT
TEMPO 0708/0712 SCT040 FEW045TCU
TEMPO 0712/0716 7000 -TSRA FEW022 SCT040CB BKN070
TEMPO 0716/0722 23015G25KT 4000 TSRA FEW013 BKN027CB BKN050
BECMG 0722/0800 34005KT 6000 RA SCT023 OVC045



MET'MAP, la Météo Aéronautique d'un coup d'oeil ! - Copyright ORBIFLY Décembre 2007 - Disclaimer

ORBIFLY MET'MAP TEAM :

Programmation & Développement : Alexandra Zaïnal
Sur une idée originale de : Baudouin d'Aumeries
Assistance à la programmation : Marc-Olivier Méhu
Soutien technique & logistique : Manuel Goepfert

Contact : metmap@orbifly.com




SOURCES & CREDITS :

   NOAA